createdAt,value
2018-09-27T00:02:20.744Z,3.80
2018-09-27T00:07:23.793Z,4.07
2018-09-27T00:12:26.822Z,3.60
2018-09-27T00:17:29.857Z,3.90
2018-09-27T00:22:32.918Z,3.60
2018-09-27T00:27:35.943Z,3.50
2018-09-27T00:32:38.990Z,3.87
2018-09-27T00:37:42.066Z,3.80
2018-09-27T00:42:45.094Z,3.23
2018-09-27T00:47:48.143Z,3.70
2018-09-27T00:52:51.219Z,3.87
2018-09-27T00:57:54.279Z,3.53
2018-09-27T01:02:57.310Z,4.30
2018-09-27T01:08:00.374Z,3.87
2018-09-27T01:13:03.422Z,3.97
2018-09-27T01:18:06.460Z,4.27
2018-09-27T01:23:09.465Z,3.83
2018-09-27T01:28:12.474Z,5.13
2018-09-27T01:33:15.527Z,4.20
2018-09-27T01:38:18.547Z,4.80
2018-09-27T01:43:21.615Z,5.10
2018-09-27T01:48:24.653Z,4.63
2018-09-27T01:53:27.686Z,4.10
2018-09-27T01:58:30.702Z,4.87
2018-09-27T02:03:33.728Z,4.60
2018-09-27T02:08:36.815Z,4.40
2018-09-27T02:13:39.884Z,4.53
2018-09-27T02:18:42.935Z,5.03
2018-09-27T02:23:45.962Z,4.90
2018-09-27T02:28:48.983Z,5.13
2018-09-27T02:33:52.103Z,5.23
2018-09-27T02:38:55.156Z,4.87
2018-09-27T02:43:58.252Z,5.30
2018-09-27T02:49:01.505Z,4.97
2018-09-27T02:54:04.835Z,5.50
2018-09-27T02:59:08.060Z,5.23
2018-09-27T03:04:11.141Z,5.37
2018-09-27T03:09:14.216Z,5.10
2018-09-27T03:14:17.702Z,5.50
2018-09-27T03:19:21.109Z,6.30
2018-09-27T03:24:24.196Z,5.77
2018-09-27T03:29:27.263Z,5.80
2018-09-27T03:34:30.419Z,5.67
2018-09-27T03:39:33.561Z,4.90
2018-09-27T03:44:36.676Z,5.57
2018-09-27T03:49:39.743Z,6.50
2018-09-27T03:54:42.834Z,5.60
2018-09-27T03:59:45.934Z,5.70
2018-09-27T04:04:48.982Z,5.30
2018-09-27T04:09:52.038Z,5.73
2018-09-27T04:14:55.146Z,5.87
2018-09-27T04:19:58.580Z,5.27
2018-09-27T04:25:02.525Z,5.37
2018-09-27T04:30:06.508Z,6.27
2018-09-27T04:35:09.604Z,5.80
2018-09-27T04:40:12.680Z,6.43
2018-09-27T04:45:15.866Z,5.80
2018-09-27T04:50:18.922Z,6.07
2018-09-27T04:55:23.735Z,6.47
2018-09-27T05:06:04.241Z,6.07
2018-09-27T05:11:07.363Z,6.17
2018-09-27T05:16:10.525Z,6.97
2018-09-27T05:21:13.669Z,6.17
2018-09-27T05:26:16.744Z,6.73
2018-09-27T05:31:19.868Z,6.90
2018-09-27T05:36:24.015Z,5.93
2018-09-27T05:41:27.175Z,6.47
2018-09-27T05:46:30.242Z,6.63
2018-09-27T05:51:33.337Z,6.23
2018-09-27T05:56:36.498Z,6.20
2018-09-27T06:01:39.546Z,6.77
2018-09-27T06:06:43.048Z,5.80
2018-09-27T06:11:46.087Z,7.00
2018-09-27T06:16:49.162Z,6.13
2018-09-27T06:21:52.227Z,6.17
2018-09-27T06:26:55.307Z,6.80
2018-09-27T06:31:58.397Z,5.43
2018-09-27T06:37:01.470Z,5.67
2018-09-27T06:42:04.551Z,5.90
2018-09-27T06:47:07.690Z,6.07
2018-09-27T06:52:10.795Z,5.80
2018-09-27T06:57:13.873Z,5.70
2018-09-27T07:02:16.963Z,6.10
2018-09-27T07:07:20.062Z,6.10
2018-09-27T07:12:23.317Z,6.97
2018-09-27T07:17:26.224Z,5.77
2018-09-27T07:22:29.387Z,6.43
2018-09-27T07:27:32.433Z,6.23
2018-09-27T07:32:35.545Z,6.43
2018-09-27T07:37:38.621Z,6.40
2018-09-27T07:42:41.742Z,6.40
2018-09-27T07:47:44.845Z,6.80
2018-09-27T07:52:47.890Z,7.70
2018-09-27T07:57:50.936Z,6.07
2018-09-27T08:02:54.056Z,6.03
2018-09-27T08:07:57.086Z,6.80
2018-09-27T08:13:00.185Z,8.17
2018-09-27T08:18:03.290Z,6.57
2018-09-27T08:23:06.364Z,7.73
2018-09-27T08:28:09.438Z,6.50
2018-09-27T08:33:12.488Z,6.97
2018-09-27T08:38:15.569Z,6.57
2018-09-27T08:43:18.668Z,6.60
2018-09-27T08:48:21.784Z,6.63
2018-09-27T08:53:24.887Z,7.80
2018-09-27T08:58:28.006Z,7.23
2018-09-27T09:03:31.169Z,8.00
2018-09-27T09:08:34.180Z,7.53
2018-09-27T09:13:37.222Z,8.07
2018-09-27T09:18:40.295Z,7.60
2018-09-27T09:23:43.367Z,7.60
2018-09-27T09:28:46.406Z,7.53
2018-09-27T09:33:49.479Z,8.53
2018-09-27T09:38:52.557Z,8.17
2018-09-27T09:43:55.620Z,7.67
2018-09-27T09:48:58.676Z,8.10
2018-09-27T09:54:01.749Z,7.33
2018-09-27T09:59:04.936Z,8.00
2018-09-27T10:04:08.008Z,6.53
2018-09-27T10:09:11.440Z,7.10
2018-09-27T10:14:14.504Z,6.80
2018-09-27T10:19:17.586Z,6.83
2018-09-27T10:24:20.685Z,6.10
2018-09-27T10:29:23.730Z,6.10
2018-09-27T10:34:26.790Z,6.37
2018-09-27T10:39:29.900Z,6.03
2018-09-27T10:44:33.007Z,4.90
2018-09-27T10:49:36.063Z,4.60
2018-09-27T10:54:39.143Z,4.70
2018-09-27T10:59:42.215Z,4.00
2018-09-27T11:04:46.822Z,3.70
2018-09-27T11:09:51.188Z,3.70
2018-09-27T11:14:56.571Z,4.10
2018-09-27T11:20:00.144Z,3.70
2018-09-27T11:25:04.248Z,4.27
2018-09-27T11:30:13.653Z,3.93
2018-09-27T11:35:17.866Z,3.20
2018-09-27T11:40:21.900Z,3.30
2018-09-27T11:45:25.968Z,3.60
2018-09-27T11:50:30.222Z,2.70
2018-09-27T11:55:33.386Z,3.17
2018-09-27T12:00:37.595Z,3.57
2018-09-27T12:05:41.309Z,2.73
2018-09-27T12:10:45.054Z,3.80
2018-09-27T12:15:49.017Z,3.00
2018-09-27T12:20:52.783Z,2.30
2018-09-27T12:25:55.965Z,2.67
2018-09-27T12:30:59.108Z,2.43
2018-09-27T12:36:02.235Z,2.67
2018-09-27T12:41:05.343Z,2.17
2018-09-27T12:46:08.835Z,2.80
2018-09-27T12:51:11.883Z,2.27
2018-09-27T12:56:14.940Z,3.77
2018-09-27T13:01:18.087Z,2.93
2018-09-27T13:06:21.148Z,3.40
2018-09-27T13:11:24.205Z,3.73
2018-09-27T13:22:12.692Z,2.83
2018-09-27T13:27:15.789Z,3.60
2018-09-27T13:32:18.854Z,3.17
2018-09-27T13:37:21.916Z,2.83
2018-09-27T13:42:25.072Z,2.60
2018-09-27T13:47:29.076Z,2.93
2018-09-27T13:52:32.146Z,3.20
2018-09-27T13:57:35.193Z,2.00
2018-09-27T14:02:38.236Z,2.57
2018-09-27T14:07:41.327Z,5.87
2018-09-27T14:12:44.421Z,2.80
2018-09-27T14:17:47.512Z,2.80
2018-09-27T14:22:50.584Z,4.87
2018-09-27T14:27:53.672Z,3.17
2018-09-27T14:32:56.752Z,3.07
2018-09-27T14:37:59.844Z,2.60
2018-09-27T14:43:02.929Z,3.30
2018-09-27T14:48:06.050Z,3.23
2018-09-27T14:53:09.160Z,2.97
2018-09-27T14:58:12.337Z,2.90
2018-09-27T15:03:15.428Z,3.67
2018-09-27T15:08:18.496Z,3.43
2018-09-27T15:13:21.800Z,3.27
2018-09-27T15:18:24.876Z,3.87
2018-09-27T15:23:28.156Z,3.37
2018-09-27T15:28:31.220Z,3.80
2018-09-27T15:33:34.499Z,3.90
2018-09-27T15:38:37.587Z,3.67
2018-09-27T15:43:40.703Z,4.30
2018-09-27T15:48:43.828Z,5.03
2018-09-27T15:53:46.951Z,4.07
2018-09-27T15:58:50.032Z,3.90
2018-09-27T16:03:53.137Z,3.20
2018-09-27T16:08:56.255Z,3.83
2018-09-27T16:13:59.345Z,5.37
2018-09-27T16:19:02.502Z,2.83
2018-09-27T16:24:05.684Z,3.33
2018-09-27T16:29:09.208Z,2.40
2018-09-27T16:34:12.301Z,3.20
2018-09-27T16:39:15.417Z,2.87
2018-09-27T16:44:18.589Z,2.80
2018-09-27T16:49:21.787Z,3.20
2018-09-27T16:54:24.872Z,2.60
2018-09-27T16:59:40.595Z,10.20
2018-09-27T17:04:49.192Z,3.63
2018-09-27T17:15:37.672Z,3.67
2018-09-27T17:20:40.895Z,3.37
2018-09-27T17:25:43.996Z,4.30
2018-09-27T17:30:47.139Z,3.50
2018-09-27T17:35:50.188Z,3.63
2018-09-27T17:40:53.295Z,3.63
2018-09-27T17:45:56.432Z,3.77
2018-09-27T17:50:59.491Z,3.57
2018-09-27T17:56:02.660Z,3.03
2018-09-27T18:01:06.545Z,2.60
2018-09-27T18:06:10.055Z,2.40
2018-09-27T18:11:14.411Z,2.70
2018-09-27T18:16:17.677Z,4.13
2018-09-27T18:21:21.625Z,3.00
2018-09-27T18:26:24.755Z,3.10
2018-09-27T18:31:28.468Z,4.10
2018-09-27T18:36:31.634Z,3.10
2018-09-27T18:41:34.846Z,2.90
2018-09-27T18:46:46.516Z,4.63
2018-09-27T18:51:57.113Z,4.87
2018-09-27T18:57:05.809Z,5.10
2018-09-27T19:02:10.733Z,3.47
2018-09-27T19:07:13.953Z,3.00
2018-09-27T19:12:17.094Z,3.50
2018-09-27T19:17:20.208Z,4.30
2018-09-27T19:22:23.335Z,4.20
2018-09-27T19:27:26.521Z,4.30
2018-09-27T19:32:33.759Z,4.97
2018-09-27T19:37:37.015Z,4.57
2018-09-27T19:42:41.108Z,3.40
2018-09-27T19:47:44.201Z,3.47
2018-09-27T19:52:47.328Z,3.40
2018-09-27T19:57:50.697Z,3.73
2018-09-27T20:02:53.958Z,3.40
2018-09-27T20:07:57.052Z,3.27
2018-09-27T20:13:00.283Z,3.03
2018-09-27T20:18:03.388Z,3.03
2018-09-27T20:23:06.548Z,3.17
2018-09-27T20:28:09.669Z,3.07
2018-09-27T20:33:12.683Z,3.37
2018-09-27T20:38:15.751Z,3.47
2018-09-27T20:43:18.844Z,3.90
2018-09-27T20:48:21.917Z,3.13
2018-09-27T20:53:24.968Z,3.90
2018-09-27T20:58:28.118Z,3.40
2018-09-27T21:03:31.146Z,3.77
2018-09-27T21:08:34.196Z,3.80
2018-09-27T21:13:37.257Z,4.10
2018-09-27T21:18:40.336Z,3.60
2018-09-27T21:23:43.377Z,3.90
2018-09-27T21:28:46.455Z,4.10
2018-09-27T21:33:49.516Z,4.40
2018-09-27T21:38:52.588Z,4.10
2018-09-27T21:43:55.644Z,4.27
2018-09-27T21:48:58.720Z,4.30
2018-09-27T21:54:01.807Z,4.77
2018-09-27T22:04:49.506Z,5.13
2018-09-27T22:09:54.020Z,5.27
2018-09-27T22:14:57.107Z,4.73
2018-09-27T22:20:00.157Z,6.17
2018-09-27T22:25:03.264Z,13.70
2018-09-27T22:30:07.219Z,5.30
2018-09-27T22:35:10.311Z,5.27
2018-09-27T22:40:13.441Z,5.33
2018-09-27T22:45:16.551Z,4.37
2018-09-27T22:50:19.681Z,5.37
2018-09-27T22:55:22.768Z,5.20
2018-09-27T23:00:25.856Z,5.43
2018-09-27T23:05:29.095Z,5.30
2018-09-27T23:10:51.840Z,5.00
2018-09-27T23:21:39.550Z,5.20
2018-09-27T23:26:42.695Z,6.17
2018-09-27T23:31:45.887Z,5.60
2018-09-27T23:36:48.967Z,5.40
2018-09-27T23:41:52.031Z,6.80
2018-09-27T23:46:55.100Z,6.47
2018-09-27T23:51:58.236Z,7.00
2018-09-27T23:57:01.297Z,6.73
